Liberty of The Seas — C6VQ8 — position and weather

sailwx.info

Track history (hours):
 
Tides and Currents Weather Stations Pressure Air Temp Water Temp Dewpoint Dewpoint Depression Visibility Wind Speed Wind Dir Waves Ship Positions

Liberty of The Seas

Last reported at 2020-Apr-04 19:32 UTC. Time now 2020-Apr-05 07:49 UTC.
Position N 29°14' W 094°23'.

Type: Passenger vessel. MMSI: 309436000.

Date/timePositionNaut miles runAvg speedWind from/ knotsBaromVisibWave heightAir tempDewpointWater temp
2020-Apr-04 19:32N 29°14' W 094°23'0 0.2
2020-Apr-04 19:26N 29°14' W 094°23'0 0.0
2020-Apr-04 15:38N 29°14' W 094°23'0 0.0
2020-Apr-04 14:59N 29°14' W 094°23'0 0.0
2020-Apr-04 13:38N 29°14' W 094°23'0 0.0
2020-Apr-04 13:05N 29°14' W 094°23'0 0.0
2020-Apr-04 11:26N 29°14' W 094°23'0 0.0
2020-Apr-04 10:50N 29°14' W 094°23'0 0.0
2020-Apr-04 10:08N 29°14' W 094°23'0 0.0
2020-Apr-02 07:53N 29°14' W 094°23'0 0.0
2020-Apr-01 07:17N 29°14' W 094°23'0 0.0
2020-Mar-31 16:17N 29°14' W 094°23'0 0.0
2020-Mar-31 09:38N 29°14' W 094°23'0 0.0
2020-Mar-31 09:20N 29°14' W 094°23'0 0.0
2020-Mar-31 08:20N 29°14' W 094°23'0 0.0
2020-Mar-30 23:23N 29°14' W 094°23'0 0.0
2020-Mar-30 20:50N 29°14' W 094°23'9 2.6
2020-Mar-30 17:28N 29°14' W 094°33'1111.2
2020-Mar-30 16:30N 29°21' W 094°42'5 2.6
2020-Mar-30 14:28N 29°19' W 094°48'0 0.0
2020-Mar-30 13:58N 29°19' W 094°48'0 0.0
2020-Mar-30 11:58N 29°19' W 094°48'0 0.0
2020-Mar-30 10:28N 29°19' W 094°48'0 0.0
2020-Mar-30 08:28N 29°19' W 094°48'0 0.0
2020-Mar-30 07:58N 29°19' W 094°48'0 0.0
2020-Mar-30 05:58N 29°19' W 094°48'0 0.0
2020-Mar-30 05:28N 29°19' W 094°48'0 0.0
2020-Mar-30 04:28N 29°19' W 094°48'0 0.0
2020-Mar-30 01:58N 29°19' W 094°48'0 0.0
2020-Mar-30 01:28N 29°19' W 094°48'0 0.0
2020-Mar-29 22:28N 29°19' W 094°48'0 0.0
2020-Mar-29 21:28N 29°19' W 094°48'0 0.0
2020-Mar-29 20:28N 29°19' W 094°48'0 0.0
2020-Mar-29 19:28N 29°19' W 094°48'0 0.0
2020-Mar-29 18:58N 29°19' W 094°48'0 0.0
2020-Mar-29 17:58N 29°19' W 094°48'0 0.0
2020-Mar-29 17:28N 29°19' W 094°48'0 0.0
2020-Mar-29 16:28N 29°19' W 094°48'0 0.0
2020-Mar-29 14:28N 29°19' W 094°48'0 0.0
2020-Mar-29 13:28N 29°19' W 094°48'0 0.0
2020-Mar-29 12:58N 29°19' W 094°48'0 0.0
2020-Mar-29 12:25N 29°19' W 094°48'0 0.0
2020-Mar-29 11:23N 29°19' W 094°48'23 9.7
2020-Mar-29 09:00N 29°09' W 094°24'156 7.6
2020-Mar-28 12:30N 27°09' W 092°32'611.7
2020-Mar-28 12:00N 27°14' W 092°35'611.5
2020-Mar-28 11:30N 27°19' W 092°39'29 9.6
2020-Mar-28 08:30N 27°47' W 092°42'6210.8
2020-Mar-28 02:46N 28°35' W 093°27'411.5
2020-Mar-28 02:27N 28°37' W 093°31'4511.3
2020-Mar-27 22:30N 29°02' W 094°13'8 8.0
2020-Mar-27 21:30N 29°07' W 094°20'7 1.6
2020-Mar-27 16:59N 29°14' W 094°23'0 0.0
2020-Mar-27 16:29N 29°14' W 094°23'0 0.0
2020-Mar-27 15:56N 29°14' W 094°23'0 0.0
2020-Mar-27 14:59N 29°14' W 094°23'0 0.0
2020-Mar-27 13:29N 29°14' W 094°23'0 0.0
2020-Mar-27 12:29N 29°14' W 094°23'0 0.0
2020-Mar-27 11:56N 29°14' W 094°23'0 0.0
2020-Mar-27 10:26N 29°14' W 094°23'0 0.0
2020-Mar-27 09:59N 29°14' W 094°23'0 0.0
2020-Mar-27 07:59N 29°14' W 094°23'0 0.0
2020-Mar-27 05:59N 29°14' W 094°23'0 0.0
2020-Mar-27 03:29N 29°14' W 094°23'0 0.0
2020-Mar-26 21:29N 29°14' W 094°23'0 0.0
2020-Mar-26 20:35N 29°14' W 094°23'0 0.0
2020-Mar-26 17:59N 29°14' W 094°23'0 0.0
2020-Mar-26 17:29N 29°14' W 094°23'0 0.0
2020-Mar-26 14:59N 29°14' W 094°23'0 0.0
2020-Mar-26 13:23N 29°14' W 094°23'0 0.0
2020-Mar-26 10:59N 29°14' W 094°23'0 0.0
2020-Mar-26 09:59N 29°14' W 094°23'0 0.0
2020-Mar-26 09:29N 29°14' W 094°23'0 0.0
2020-Mar-26 07:59N 29°14' W 094°23'0 0.0
2020-Mar-26 07:29N 29°14' W 094°23'0 0.0
2020-Mar-26 06:59N 29°14' W 094°23'0 0.0
2020-Mar-26 06:26N 29°14' W 094°23'0 0.0
2020-Mar-26 05:56N 29°14' W 094°23'0 0.0
2020-Mar-26 05:29N 29°14' W 094°23'0 0.0
2020-Mar-26 04:29N 29°14' W 094°23'0 0.0
2020-Mar-26 03:23N 29°14' W 094°23'0 0.0
2020-Mar-25 22:59N 29°14' W 094°23'0 0.0
2020-Mar-25 20:29N 29°14' W 094°23'  
Track history (hours):
 
Tides and Currents Weather Stations Pressure Air Temp Water Temp Dewpoint Dewpoint Depression Visibility Wind Speed Wind Dir Waves Ship Positions

Liberty of The Seas

Last reported at 2020-Apr-04 19:32 UTC. Time now 2020-Apr-05 07:49 UTC.
Position N 29°14' W 094°23'.

Type: Passenger vessel. MMSI: 309436000.

Date/timePositionNaut miles runAvg speedWind from/ knotsBaromVisibWave heightAir tempDewpointWater temp
2020-Apr-04 19:32N 29°14' W 094°23'0 0.2
2020-Apr-04 19:26N 29°14' W 094°23'0 0.0
2020-Apr-04 15:38N 29°14' W 094°23'0 0.0
2020-Apr-04 14:59N 29°14' W 094°23'0 0.0
2020-Apr-04 13:38N 29°14' W 094°23'0 0.0
2020-Apr-04 13:05N 29°14' W 094°23'0 0.0
2020-Apr-04 11:26N 29°14' W 094°23'0 0.0
2020-Apr-04 10:50N 29°14' W 094°23'0 0.0
2020-Apr-04 10:08N 29°14' W 094°23'0 0.0
2020-Apr-02 07:53N 29°14' W 094°23'0 0.0
2020-Apr-01 07:17N 29°14' W 094°23'0 0.0
2020-Mar-31 16:17N 29°14' W 094°23'0 0.0
2020-Mar-31 09:38N 29°14' W 094°23'0 0.0
2020-Mar-31 09:20N 29°14' W 094°23'0 0.0
2020-Mar-31 08:20N 29°14' W 094°23'0 0.0
2020-Mar-30 23:23N 29°14' W 094°23'0 0.0
2020-Mar-30 20:50N 29°14' W 094°23'9 2.6
2020-Mar-30 17:28N 29°14' W 094°33'1111.2
2020-Mar-30 16:30N 29°21' W 094°42'5 2.6
2020-Mar-30 14:28N 29°19' W 094°48'0 0.0
2020-Mar-30 13:58N 29°19' W 094°48'0 0.0
2020-Mar-30 11:58N 29°19' W 094°48'0 0.0
2020-Mar-30 10:28N 29°19' W 094°48'0 0.0
2020-Mar-30 08:28N 29°19' W 094°48'0 0.0
2020-Mar-30 07:58N 29°19' W 094°48'0 0.0
2020-Mar-30 05:58N 29°19' W 094°48'0 0.0
2020-Mar-30 05:28N 29°19' W 094°48'0 0.0
2020-Mar-30 04:28N 29°19' W 094°48'0 0.0
2020-Mar-30 01:58N 29°19' W 094°48'0 0.0
2020-Mar-30 01:28N 29°19' W 094°48'0 0.0
2020-Mar-29 22:28N 29°19' W 094°48'0 0.0
2020-Mar-29 21:28N 29°19' W 094°48'0 0.0
2020-Mar-29 20:28N 29°19' W 094°48'0 0.0
2020-Mar-29 19:28N 29°19' W 094°48'0 0.0
2020-Mar-29 18:58N 29°19' W 094°48'0 0.0
2020-Mar-29 17:58N 29°19' W 094°48'0 0.0
2020-Mar-29 17:28N 29°19' W 094°48'0 0.0
2020-Mar-29 16:28N 29°19' W 094°48'0 0.0
2020-Mar-29 14:28N 29°19' W 094°48'0 0.0
2020-Mar-29 13:28N 29°19' W 094°48'0 0.0
2020-Mar-29 12:58N 29°19' W 094°48'0 0.0
2020-Mar-29 12:25N 29°19' W 094°48'0 0.0
2020-Mar-29 11:23N 29°19' W 094°48'23 9.7
2020-Mar-29 09:00N 29°09' W 094°24'156 7.6
2020-Mar-28 12:30N 27°09' W 092°32'611.7
2020-Mar-28 12:00N 27°14' W 092°35'611.5
2020-Mar-28 11:30N 27°19' W 092°39'29 9.6
2020-Mar-28 08:30N 27°47' W 092°42'6210.8
2020-Mar-28 02:46N 28°35' W 093°27'411.5
2020-Mar-28 02:27N 28°37' W 093°31'4511.3
2020-Mar-27 22:30N 29°02' W 094°13'8 8.0
2020-Mar-27 21:30N 29°07' W 094°20'7 1.6
2020-Mar-27 16:59N 29°14' W 094°23'0 0.0
2020-Mar-27 16:29N 29°14' W 094°23'0 0.0
2020-Mar-27 15:56N 29°14' W 094°23'0 0.0
2020-Mar-27 14:59N 29°14' W 094°23'0 0.0
2020-Mar-27 13:29N 29°14' W 094°23'0 0.0
2020-Mar-27 12:29N 29°14' W 094°23'0 0.0
2020-Mar-27 11:56N 29°14' W 094°23'0 0.0
2020-Mar-27 10:26N 29°14' W 094°23'0 0.0
2020-Mar-27 09:59N 29°14' W 094°23'0 0.0
2020-Mar-27 07:59N 29°14' W 094°23'0 0.0
2020-Mar-27 05:59N 29°14' W 094°23'0 0.0
2020-Mar-27 03:29N 29°14' W 094°23'0 0.0
2020-Mar-26 21:29N 29°14' W 094°23'0 0.0
2020-Mar-26 20:35N 29°14' W 094°23'0 0.0
2020-Mar-26 17:59N 29°14' W 094°23'0 0.0
2020-Mar-26 17:29N 29°14' W 094°23'0 0.0
2020-Mar-26 14:59N 29°14' W 094°23'0 0.0
2020-Mar-26 13:23N 29°14' W 094°23'0 0.0
2020-Mar-26 10:59N 29°14' W 094°23'0 0.0
2020-Mar-26 09:59N 29°14' W 094°23'0 0.0
2020-Mar-26 09:29N 29°14' W 094°23'0 0.0
2020-Mar-26 07:59N 29°14' W 094°23'0 0.0
2020-Mar-26 07:29N 29°14' W 094°23'0 0.0
2020-Mar-26 06:59N 29°14' W 094°23'0 0.0
2020-Mar-26 06:26N 29°14' W 094°23'0 0.0
2020-Mar-26 05:56N 29°14' W 094°23'0 0.0
2020-Mar-26 05:29N 29°14' W 094°23'0 0.0
2020-Mar-26 04:29N 29°14' W 094°23'0 0.0
2020-Mar-26 03:23N 29°14' W 094°23'0 0.0
2020-Mar-25 22:59N 29°14' W 094°23'0 0.0
2020-Mar-25 20:29N 29°14' W 094°23'  

Dump ship's entire track history